createdAt,value
2018-07-02T00:00:57.843Z,0.00
2018-07-02T00:01:57.821Z,0.00
2018-07-02T00:02:57.792Z,0.00
2018-07-02T00:03:57.767Z,0.00
2018-07-02T00:04:57.749Z,0.00
2018-07-02T00:05:57.730Z,0.00
2018-07-02T00:06:57.697Z,0.00
2018-07-02T00:07:57.670Z,0.00
2018-07-02T00:08:57.652Z,0.00
2018-07-02T00:09:57.618Z,0.00
2018-07-02T00:10:57.795Z,0.00
2018-07-02T00:11:57.569Z,0.00
2018-07-02T00:12:57.545Z,0.00
2018-07-02T00:13:57.523Z,0.00
2018-07-02T00:14:57.496Z,0.00
2018-07-02T00:15:57.678Z,0.00
2018-07-02T00:16:57.446Z,0.00
2018-07-02T00:17:57.423Z,0.00
2018-07-02T00:18:57.395Z,0.00
2018-07-02T00:19:57.408Z,0.00
2018-07-02T00:20:57.344Z,0.00
2018-07-02T00:21:57.319Z,0.00
2018-07-02T00:22:57.299Z,0.00
2018-07-02T00:23:57.269Z,0.00
2018-07-02T00:24:57.253Z,0.00
2018-07-02T00:25:57.221Z,0.00
2018-07-02T00:26:57.194Z,0.00
2018-07-02T00:27:57.172Z,0.00
2018-07-02T00:28:57.144Z,0.00
2018-07-02T00:29:57.119Z,0.00
2018-07-02T00:30:57.098Z,0.00
2018-07-02T00:31:57.071Z,0.00
2018-07-02T00:32:57.046Z,0.00
2018-07-02T00:34:01.067Z,0.00
2018-07-02T00:34:56.993Z,0.00
2018-07-02T00:35:56.969Z,0.00
2018-07-02T00:36:56.945Z,0.00
2018-07-02T00:37:57.170Z,0.00
2018-07-02T00:38:56.893Z,0.00
2018-07-02T00:39:56.870Z,0.00
2018-07-02T00:40:56.845Z,0.00
2018-07-02T00:41:56.818Z,0.00
2018-07-02T00:42:56.792Z,0.00
2018-07-02T00:43:56.767Z,0.00
2018-07-02T00:44:56.744Z,0.00
2018-07-02T00:45:56.721Z,0.00
2018-07-02T00:46:56.698Z,0.00
2018-07-02T00:47:56.668Z,0.00
2018-07-02T00:48:56.645Z,0.00
2018-07-02T00:49:56.618Z,0.00
2018-07-02T00:50:56.592Z,0.00
2018-07-02T00:51:56.568Z,0.00
2018-07-02T00:52:56.540Z,0.00
2018-07-02T00:53:56.515Z,0.00
2018-07-02T00:54:56.489Z,0.00
2018-07-02T00:55:56.466Z,0.00
2018-07-02T00:56:56.442Z,0.00
2018-07-02T00:57:56.416Z,0.00
2018-07-02T00:58:56.391Z,0.00
2018-07-02T00:59:56.364Z,0.00
2018-07-02T01:00:56.342Z,0.00
2018-07-02T01:01:56.314Z,0.00
2018-07-02T01:02:56.287Z,0.00
2018-07-02T01:03:56.263Z,0.00
2018-07-02T01:04:56.236Z,0.00
2018-07-02T01:05:56.214Z,0.00
2018-07-02T01:06:56.191Z,0.00
2018-07-02T01:07:56.163Z,0.00
2018-07-02T01:08:56.138Z,0.00
2018-07-02T01:09:56.115Z,0.00
2018-07-02T01:10:56.087Z,0.00
2018-07-02T01:11:56.063Z,0.00
2018-07-02T01:12:56.035Z,0.00
2018-07-02T01:13:56.011Z,0.00
2018-07-02T01:14:56.037Z,0.00
2018-07-02T01:15:55.959Z,0.00
2018-07-02T01:16:55.938Z,0.00
2018-07-02T01:17:55.911Z,0.00
2018-07-02T01:18:55.884Z,0.00
2018-07-02T01:19:55.859Z,0.00
2018-07-02T01:20:55.834Z,0.00
2018-07-02T01:21:56.012Z,0.00
2018-07-02T01:22:55.787Z,0.00
2018-07-02T01:23:55.758Z,0.00
2018-07-02T01:24:55.731Z,0.00
2018-07-02T01:25:55.715Z,0.00
2018-07-02T01:26:55.684Z,0.00
2018-07-02T01:27:55.654Z,0.00
2018-07-02T01:28:55.632Z,0.00
2018-07-02T01:29:55.606Z,0.00
2018-07-02T01:30:55.582Z,0.00
2018-07-02T01:31:55.555Z,0.00
2018-07-02T01:32:55.527Z,0.00
2018-07-02T01:33:55.506Z,0.00
2018-07-02T01:34:55.477Z,0.00
2018-07-02T01:35:55.452Z,0.00
2018-07-02T01:36:55.428Z,0.00
2018-07-02T01:37:55.402Z,0.00
2018-07-02T01:38:55.378Z,0.00
2018-07-02T01:39:55.351Z,0.00
2018-07-02T01:40:55.324Z,0.00
2018-07-02T01:41:55.299Z,0.00
2018-07-02T01:42:55.272Z,0.00
2018-07-02T01:43:55.248Z,0.00
2018-07-02T01:44:55.224Z,0.00
2018-07-02T01:45:55.199Z,0.00
2018-07-02T01:46:55.173Z,0.00
2018-07-02T01:47:55.147Z,0.00
2018-07-02T01:48:55.122Z,0.00
2018-07-02T01:49:55.097Z,0.00
2018-07-02T01:50:55.068Z,0.00
2018-07-02T01:51:55.043Z,0.00
2018-07-02T01:52:55.028Z,0.00
2018-07-02T01:53:54.993Z,0.00
2018-07-02T01:54:54.965Z,0.00
2018-07-02T01:55:54.944Z,4.00
2018-07-02T01:56:54.917Z,4.00
2018-07-02T01:57:54.893Z,4.00
2018-07-02T01:58:54.869Z,4.00
2018-07-02T01:59:54.842Z,0.00
2018-07-02T02:00:54.823Z,0.00
2018-07-02T02:01:54.790Z,4.00
2018-07-02T02:02:54.763Z,4.00
2018-07-02T02:03:54.738Z,4.00
2018-07-02T02:04:54.716Z,0.00
2018-07-02T02:05:54.689Z,4.00
2018-07-02T02:06:54.663Z,4.00
2018-07-02T02:07:54.636Z,4.00
2018-07-02T02:08:54.612Z,4.00
2018-07-02T02:09:54.586Z,8.00
2018-07-02T02:10:58.195Z,8.00
2018-07-02T02:11:54.738Z,8.00
2018-07-02T02:12:54.511Z,8.00
2018-07-02T02:13:54.483Z,8.00
2018-07-02T02:14:54.457Z,8.00
2018-07-02T02:15:54.431Z,12.00
2018-07-02T02:16:54.407Z,12.00
2018-07-02T02:17:54.382Z,16.00
2018-07-02T02:18:54.356Z,16.00
2018-07-02T02:19:54.333Z,16.00
2018-07-02T02:20:54.302Z,24.00
2018-07-02T02:21:54.282Z,24.00
2018-07-02T02:22:54.269Z,28.00
2018-07-02T02:23:54.226Z,28.00
2018-07-02T02:24:54.201Z,32.00
2018-07-02T02:25:54.176Z,36.00
2018-07-02T02:26:54.151Z,40.00
2018-07-02T02:27:54.124Z,44.00
2018-07-02T02:28:54.099Z,48.00
2018-07-02T02:29:54.074Z,56.00
2018-07-02T02:30:54.048Z,60.00
2018-07-02T02:31:54.024Z,68.00
2018-07-02T02:32:53.996Z,76.00
2018-07-02T02:33:53.969Z,84.00
2018-07-02T02:34:53.944Z,92.00
2018-07-02T02:35:53.920Z,100.00
2018-07-02T02:36:53.895Z,112.00
2018-07-02T02:37:53.871Z,124.00
2018-07-02T02:38:53.844Z,136.00
2018-07-02T02:39:53.816Z,148.00
2018-07-02T02:40:53.792Z,164.00
2018-07-02T02:41:53.765Z,180.00
2018-07-02T02:42:53.739Z,196.00
2018-07-02T02:43:53.715Z,216.00
2018-07-02T02:44:53.699Z,232.00
2018-07-02T02:45:53.662Z,256.00
2018-07-02T02:46:53.838Z,276.00
2018-07-02T02:47:53.609Z,300.00
2018-07-02T02:48:53.789Z,320.00
2018-07-02T02:49:53.561Z,352.00
2018-07-02T02:50:53.534Z,380.00
2018-07-02T02:51:53.508Z,408.00
2018-07-02T02:52:53.482Z,436.00
2018-07-02T02:53:53.456Z,468.00
2018-07-02T02:54:53.429Z,504.00
2018-07-02T02:55:53.404Z,540.00
2018-07-02T02:56:53.381Z,576.00
2018-07-02T02:57:53.353Z,612.00
2018-07-02T02:58:53.325Z,656.00
2018-07-02T02:59:53.301Z,700.00
2018-07-02T03:00:53.276Z,740.00
2018-07-02T03:01:53.254Z,788.00
2018-07-02T03:02:53.427Z,832.00
2018-07-02T03:03:53.206Z,880.00
2018-07-02T03:04:53.172Z,932.00
2018-07-02T03:05:53.349Z,984.00
2018-07-02T03:06:53.322Z,1040.00
2018-07-02T03:07:53.096Z,1092.00
2018-07-02T03:08:53.276Z,1148.00
2018-07-02T03:09:53.057Z,1208.00
2018-07-02T03:10:53.018Z,1264.00
2018-07-02T03:11:52.996Z,1320.00
2018-07-02T03:12:52.968Z,1380.00
2018-07-02T03:13:52.943Z,1440.00
2018-07-02T03:14:52.915Z,1500.00
2018-07-02T03:15:53.097Z,1560.00
2018-07-02T03:16:52.861Z,1624.00
2018-07-02T03:17:52.837Z,1688.00
2018-07-02T03:18:52.816Z,1748.00
2018-07-02T03:19:52.786Z,1812.00
2018-07-02T03:20:52.762Z,1876.00
2018-07-02T03:21:52.735Z,1940.00
2018-07-02T03:22:52.715Z,2008.00
2018-07-02T03:23:52.683Z,2068.00
2018-07-02T03:24:52.654Z,2132.00
2018-07-02T03:25:52.631Z,2196.00
2018-07-02T03:26:52.613Z,2264.00
2018-07-02T03:27:52.580Z,2328.00
2018-07-02T03:28:52.552Z,2392.00
2018-07-02T03:29:52.526Z,2456.00
2018-07-02T03:30:52.500Z,2524.00
2018-07-02T03:31:52.477Z,2584.00
2018-07-02T03:32:52.450Z,2652.00
2018-07-02T03:33:52.426Z,2712.00
2018-07-02T03:34:52.399Z,2780.00
2018-07-02T03:35:52.372Z,2840.00
2018-07-02T03:36:52.348Z,2904.00
2018-07-02T03:37:52.318Z,2968.00
2018-07-02T03:38:52.294Z,3032.00
2018-07-02T03:39:52.268Z,3112.00
2018-07-02T03:40:52.243Z,3292.00
2018-07-02T03:41:52.219Z,3560.00
2018-07-02T03:42:52.193Z,3764.00
2018-07-02T03:43:52.167Z,3876.00
2018-07-02T03:44:52.141Z,3996.00
2018-07-02T03:45:52.114Z,4100.00
2018-07-02T03:46:52.091Z,4232.00
2018-07-02T03:47:52.062Z,4368.00
2018-07-02T03:48:52.040Z,4536.00
2018-07-02T03:49:52.015Z,4668.00
2018-07-02T03:50:51.987Z,4852.00
2018-07-02T03:51:51.963Z,5024.00
2018-07-02T03:52:51.938Z,5208.00
2018-07-02T03:53:51.910Z,5364.00
2018-07-02T03:54:51.884Z,5560.00
2018-07-02T03:55:51.866Z,5708.00
2018-07-02T03:56:51.837Z,5876.00
2018-07-02T03:57:51.812Z,6004.00
2018-07-02T03:58:51.793Z,6156.00
2018-07-02T03:59:51.768Z,6264.00
2018-07-02T04:00:51.736Z,6444.00
2018-07-02T04:01:51.713Z,6684.00
2018-07-02T04:02:51.690Z,6836.00
2018-07-02T04:03:51.665Z,7064.00
2018-07-02T04:04:51.637Z,7264.00
2018-07-02T04:05:51.613Z,7488.00
2018-07-02T04:06:51.588Z,7720.00
2018-07-02T04:07:51.564Z,7752.00
2018-07-02T04:08:51.541Z,7884.00
2018-07-02T04:09:51.723Z,7928.00
2018-07-02T04:10:51.493Z,8204.00
2018-07-02T04:11:51.469Z,8608.00
2018-07-02T04:12:51.444Z,8708.00
2018-07-02T04:13:51.624Z,8832.00
2018-07-02T04:14:51.598Z,9032.00
2018-07-02T04:15:51.372Z,9216.00
2018-07-02T04:16:51.349Z,9440.00
2018-07-02T04:17:51.325Z,9700.00
2018-07-02T04:18:51.301Z,10072.00
2018-07-02T04:19:51.281Z,10180.00
2018-07-02T04:20:51.257Z,10348.00
2018-07-02T04:21:51.235Z,10476.00
2018-07-02T04:22:51.210Z,10800.00
2018-07-02T04:23:51.389Z,11012.00
2018-07-02T04:24:51.364Z,11104.00
2018-07-02T04:25:51.187Z,11304.00
2018-07-02T04:26:51.121Z,11700.00
2018-07-02T04:27:51.093Z,11932.00
2018-07-02T04:28:51.073Z,12140.00
2018-07-02T04:29:51.055Z,12312.00
2018-07-02T04:30:51.027Z,12480.00
2018-07-02T04:31:51.005Z,12624.00
2018-07-02T04:32:50.981Z,12996.00
2018-07-02T04:33:51.162Z,13252.00
2018-07-02T04:34:51.139Z,13340.00
2018-07-02T04:35:50.913Z,13732.00
2018-07-02T04:36:50.891Z,14072.00
2018-07-02T04:37:50.868Z,14276.00
2018-07-02T04:38:50.845Z,14628.00
2018-07-02T04:39:50.823Z,14840.00
2018-07-02T04:40:50.802Z,15424.00
2018-07-02T04:41:50.782Z,15936.00
2018-07-02T04:42:50.962Z,16224.00
2018-07-02T04:43:50.737Z,17088.00
2018-07-02T04:44:50.715Z,17184.00
2018-07-02T04:45:50.698Z,17440.00
2018-07-02T04:46:50.673Z,18048.00
2018-07-02T04:47:50.655Z,18720.00
2018-07-02T04:48:50.628Z,18752.00
2018-07-02T04:49:50.606Z,18592.00
2018-07-02T04:50:50.584Z,18752.00
2018-07-02T04:51:50.563Z,19360.00
2018-07-02T04:52:50.542Z,19488.00
2018-07-02T04:53:50.523Z,19904.00
2018-07-02T04:54:50.503Z,20000.00
2018-07-02T04:55:50.479Z,20032.00
2018-07-02T04:56:50.457Z,20224.00
2018-07-02T04:57:50.436Z,20384.00
2018-07-02T04:58:50.412Z,20928.00
2018-07-02T04:59:50.417Z,21280.00
2018-07-02T05:00:50.377Z,21824.00
2018-07-02T05:01:50.354Z,21888.00
2018-07-02T05:02:50.339Z,22400.00
2018-07-02T05:03:50.313Z,22880.00
2018-07-02T05:04:50.297Z,24064.00
2018-07-02T05:05:50.271Z,24224.00
2018-07-02T05:06:50.252Z,24416.00
2018-07-02T05:07:50.234Z,25088.00
2018-07-02T05:08:50.206Z,25856.00
2018-07-02T05:09:50.388Z,25888.00
2018-07-02T05:10:50.366Z,25664.00
2018-07-02T05:11:50.144Z,25568.00
2018-07-02T05:12:50.332Z,26272.00
2018-07-02T05:13:50.313Z,26816.00
2018-07-02T05:14:50.285Z,27776.00
2018-07-02T05:15:50.267Z,27808.00
2018-07-02T05:16:50.243Z,28032.00
2018-07-02T05:17:50.224Z,28832.00
2018-07-02T05:18:50.007Z,29408.00
2018-07-02T05:19:50.184Z,29728.00
2018-07-02T05:20:49.960Z,29856.00
2018-07-02T05:21:49.945Z,30016.00
2018-07-02T05:22:49.917Z,28544.00
2018-07-02T05:23:49.901Z,29120.00
2018-07-02T05:24:49.880Z,30560.00
2018-07-02T05:25:49.867Z,30624.00
2018-07-02T05:26:49.840Z,31520.00
2018-07-02T05:27:49.820Z,32640.00
2018-07-02T05:28:49.801Z,33120.00
2018-07-02T05:29:49.777Z,33120.00
2018-07-02T05:30:49.760Z,32416.00
2018-07-02T05:31:49.738Z,32544.00
2018-07-02T05:32:49.727Z,33152.00
2018-07-02T05:33:49.701Z,32480.00
2018-07-02T05:34:49.681Z,32896.00
2018-07-02T05:35:49.664Z,34912.00
2018-07-02T05:36:49.660Z,35488.00
2018-07-02T05:37:49.623Z,35904.00
2018-07-02T05:38:49.818Z,36576.00
2018-07-02T05:39:49.583Z,36608.00
2018-07-02T05:40:49.561Z,37120.00
2018-07-02T05:41:49.541Z,38464.00
2018-07-02T05:42:49.522Z,39424.00
2018-07-02T05:43:49.501Z,38528.00
2018-07-02T05:44:49.688Z,39136.00
2018-07-02T05:45:49.667Z,38592.00
2018-07-02T05:46:49.445Z,39264.00
2018-07-02T05:47:49.427Z,40288.00
2018-07-02T05:48:49.407Z,40192.00
2018-07-02T05:49:49.387Z,39232.00
2018-07-02T05:50:49.370Z,39872.00
2018-07-02T05:51:49.349Z,39296.00
2018-07-02T05:52:49.331Z,38912.00
2018-07-02T05:53:49.314Z,37600.00
2018-07-02T05:54:49.304Z,38400.00
2018-07-02T05:55:49.478Z,39072.00
2018-07-02T05:56:49.255Z,40992.00
2018-07-02T05:57:49.237Z,41376.00
2018-07-02T05:58:49.421Z,41760.00
2018-07-02T05:59:49.401Z,41184.00
2018-07-02T06:00:49.386Z,41728.00
2018-07-02T06:01:49.166Z,42272.00
2018-07-02T06:02:49.348Z,40544.00
2018-07-02T06:03:49.328Z,41440.00
2018-07-02T06:04:49.511Z,42880.00
2018-07-02T06:05:49.295Z,44608.00
2018-07-02T06:06:49.068Z,42144.00
2018-07-02T06:07:49.294Z,38880.00
2018-07-02T06:08:49.035Z,37664.00
2018-07-02T06:09:49.218Z,36672.00
2018-07-02T06:10:49.000Z,36992.00
2018-07-02T06:11:49.181Z,36768.00
2018-07-02T06:12:49.170Z,37280.00
2018-07-02T06:22:57.179Z,24416.00
2018-07-02T06:23:56.955Z,23072.00
2018-07-02T06:27:45.766Z,21632.00
2018-07-02T06:29:27.903Z,23232.00
2018-07-02T06:30:27.951Z,35328.00
2018-07-02T06:31:27.666Z,44544.00
2018-07-02T06:32:27.853Z,48064.00
2018-07-02T06:33:27.629Z,44224.00
2018-07-02T06:35:09.974Z,43520.00
2018-07-02T06:36:09.759Z,45856.00
2018-07-02T06:37:09.737Z,47168.00
2018-07-02T06:38:09.723Z,49888.00
2018-07-02T06:39:09.701Z,50848.00
2018-07-02T06:40:09.684Z,53536.00
2018-07-02T06:41:09.872Z,54304.00
2018-07-02T06:42:09.859Z,52992.00
2018-07-02T06:43:09.840Z,53248.00
2018-07-02T06:44:09.822Z,54336.00
2018-07-02T06:45:12.428Z,57504.00
2018-07-02T06:46:13.222Z,59616.00
2018-07-02T06:47:10.377Z,58592.00
2018-07-02T06:48:09.957Z,55840.00
2018-07-02T06:49:09.739Z,55872.00
2018-07-02T06:50:09.728Z,56608.00
2018-07-02T06:51:09.707Z,59712.00
2018-07-02T06:52:09.690Z,61728.00
2018-07-02T06:53:09.677Z,57952.00
2018-07-02T06:54:09.660Z,60064.00
2018-07-02T06:55:09.440Z,60608.00
2018-07-02T06:56:09.632Z,62848.00
2018-07-02T06:57:09.409Z,64832.00
2018-07-02T06:58:09.592Z,64512.00
2018-07-02T06:59:09.578Z,60832.00
2018-07-02T07:00:09.562Z,60672.00
2018-07-02T07:01:09.546Z,61280.00
2018-07-02T07:02:09.535Z,62592.00
2018-07-02T07:03:09.518Z,64032.00
2018-07-02T07:04:09.307Z,63200.00
2018-07-02T07:05:51.644Z,62720.00
2018-07-02T07:06:51.428Z,65984.00
2018-07-02T07:07:51.411Z,71968.00
2018-07-02T07:08:51.395Z,73248.00
2018-07-02T07:09:51.382Z,73344.00
2018-07-02T07:10:51.565Z,73600.00
2018-07-02T07:11:51.552Z,73504.00
2018-07-02T07:12:51.337Z,71360.00
2018-07-02T07:13:51.322Z,71328.00
2018-07-02T07:14:51.508Z,71552.00
2018-07-02T07:15:51.495Z,73376.00
2018-07-02T07:16:51.277Z,75840.00
2018-07-02T07:17:51.262Z,78016.00
2018-07-02T07:18:51.248Z,74496.00
2018-07-02T07:19:51.235Z,68608.00
2018-07-02T07:20:51.420Z,70592.00
2018-07-02T07:21:51.407Z,78112.00
2018-07-02T07:22:51.390Z,78816.00
2018-07-02T07:23:51.375Z,79648.00
2018-07-02T07:24:51.367Z,81344.00
2018-07-02T07:25:51.205Z,78016.00
2018-07-02T07:26:51.137Z,74944.00
2018-07-02T07:27:51.122Z,78208.00
2018-07-02T07:28:51.313Z,83264.00
2018-07-02T07:29:51.294Z,80448.00
2018-07-02T07:30:51.275Z,79584.00
2018-07-02T07:31:51.261Z,77504.00
2018-07-02T07:32:51.046Z,79040.00
2018-07-02T07:33:51.235Z,80064.00
2018-07-02T07:34:51.218Z,81696.00
2018-07-02T07:35:51.004Z,83392.00
2018-07-02T07:37:35.973Z,77440.00
2018-07-02T07:38:33.337Z,82656.00
2018-07-02T07:39:33.120Z,84768.00
2018-07-02T07:40:33.308Z,81216.00
2018-07-02T07:41:33.293Z,83968.00
2018-07-02T07:42:33.279Z,89312.00
2018-07-02T07:43:33.267Z,86432.00
2018-07-02T07:44:33.253Z,88928.00
2018-07-02T07:45:33.038Z,90336.00
2018-07-02T07:46:35.854Z,90208.00
2018-07-02T07:47:33.213Z,88736.00
2018-07-02T07:49:15.359Z,83712.00
2018-07-02T07:50:15.346Z,83232.00
2018-07-02T07:52:00.114Z,82560.00
2018-07-02T07:53:00.102Z,79776.00
2018-07-02T07:53:57.465Z,81056.00
2018-07-02T07:54:57.452Z,82208.00
2018-07-02T07:55:57.435Z,82400.00
2018-07-02T07:56:57.422Z,82464.00
2018-07-02T07:57:57.207Z,83712.00
2018-07-02T07:58:57.195Z,81216.00
2018-07-02T07:59:57.385Z,79840.00
2018-07-02T08:00:57.379Z,79424.00
2018-07-02T08:01:57.357Z,81280.00
2018-07-02T08:03:39.579Z,84160.00
2018-07-02T08:04:39.291Z,84864.00
2018-07-02T08:05:39.480Z,85344.00
2018-07-02T08:06:39.265Z,81920.00
2018-07-02T08:07:39.453Z,80576.00
2018-07-02T08:08:39.236Z,80000.00
2018-07-02T08:09:39.427Z,80288.00
2018-07-02T08:10:39.417Z,79712.00
2018-07-02T08:11:39.202Z,75360.00
2018-07-02T08:13:21.552Z,82688.00
2018-07-02T08:14:21.541Z,82048.00
2018-07-02T08:15:21.535Z,80096.00
2018-07-02T08:16:22.324Z,82464.00
2018-07-02T08:17:21.507Z,83456.00
2018-07-02T08:18:21.488Z,82304.00
2018-07-02T08:19:21.475Z,86336.00
2018-07-02T08:20:21.267Z,86624.00
2018-07-02T08:21:21.251Z,84992.00
2018-07-02T08:22:21.246Z,84960.00
2018-07-02T08:23:21.225Z,86464.00
2018-07-02T08:24:21.211Z,85120.00
2018-07-02T08:25:21.202Z,87104.00
2018-07-02T08:26:21.188Z,87264.00
2018-07-02T08:27:21.181Z,88576.00
2018-07-02T08:28:21.163Z,88736.00
2018-07-02T08:29:21.156Z,87264.00
2018-07-02T08:30:21.138Z,86048.00
2018-07-02T08:31:21.132Z,88224.00
2018-07-02T08:32:21.119Z,88160.00
2018-07-02T08:33:21.107Z,86272.00
2018-07-02T08:34:21.091Z,86176.00
2018-07-02T08:35:21.287Z,88320.00
2018-07-02T08:36:21.269Z,88032.00
2018-07-02T08:37:21.258Z,88896.00
2018-07-02T08:38:21.048Z,91072.00
2018-07-02T08:39:21.032Z,91008.00
2018-07-02T08:40:21.023Z,85344.00
2018-07-02T08:41:21.260Z,86976.00
2018-07-02T08:42:21.200Z,90816.00
2018-07-02T08:43:21.190Z,91680.00
2018-07-02T08:44:20.975Z,91136.00
2018-07-02T08:47:20.942Z,94976.00
2018-07-02T08:48:20.935Z,97568.00
2018-07-02T08:49:20.918Z,98432.00
2018-07-02T08:50:20.906Z,93984.00
2018-07-02T08:51:23.717Z,93760.00
2018-07-02T08:52:20.882Z,95456.00
2018-07-02T08:53:21.073Z,95648.00
2018-07-02T08:54:21.063Z,94336.00
2018-07-02T08:56:45.375Z,96320.00
2018-07-02T08:57:45.364Z,97536.00
2018-07-02T08:59:27.523Z,99488.00
2018-07-02T09:00:27.304Z,97376.00
2018-07-02T09:01:27.289Z,95840.00
2018-07-02T09:02:27.277Z,94880.00
2018-07-02T09:03:27.267Z,97696.00
2018-07-02T09:04:27.859Z,99744.00
2018-07-02T09:05:27.445Z,97280.00
2018-07-02T09:06:27.437Z,98912.00
2018-07-02T09:07:27.427Z,100544.00
2018-07-02T09:08:27.416Z,97184.00
2018-07-02T09:09:27.405Z,95424.00
2018-07-02T09:10:27.393Z,97664.00
2018-07-02T09:11:27.380Z,102112.00
2018-07-02T09:12:27.166Z,101632.00
2018-07-02T09:13:27.156Z,98592.00
2018-07-02T09:14:27.146Z,100192.00
2018-07-02T09:15:27.338Z,104288.00
2018-07-02T09:16:27.326Z,105120.00
2018-07-02T09:17:27.316Z,101536.00
2018-07-02T09:18:27.307Z,100256.00
2018-07-02T09:19:27.302Z,100800.00
2018-07-02T09:20:27.081Z,98720.00
2018-07-02T09:21:27.073Z,98176.00
2018-07-02T09:22:27.058Z,100224.00
2018-07-02T09:23:27.050Z,100928.00
2018-07-02T09:24:27.040Z,99456.00
2018-07-02T09:25:27.229Z,101408.00
2018-07-02T09:26:27.037Z,104096.00
2018-07-02T09:27:27.008Z,103840.00
2018-07-02T09:28:26.998Z,103392.00
2018-07-02T09:29:26.985Z,101024.00
2018-07-02T09:30:26.976Z,102592.00
2018-07-02T09:31:26.965Z,105760.00
2018-07-02T09:32:26.955Z,105664.00
2018-07-02T09:33:26.943Z,103520.00
2018-07-02T09:34:26.929Z,99648.00
2018-07-02T09:35:26.917Z,100000.00
2018-07-02T09:36:26.906Z,105728.00
2018-07-02T09:37:26.899Z,106688.00
2018-07-02T09:38:26.887Z,101568.00
2018-07-02T09:39:27.008Z,100672.00
2018-07-02T09:40:27.095Z,102144.00
2018-07-02T09:41:27.057Z,102208.00
2018-07-02T09:42:27.045Z,105408.00
2018-07-02T09:43:26.831Z,105504.00
2018-07-02T09:44:26.824Z,103520.00
2018-07-02T09:45:26.971Z,101472.00
2018-07-02T09:46:27.001Z,101664.00
2018-07-02T09:47:26.789Z,102464.00
2018-07-02T09:48:26.785Z,100768.00
2018-07-02T09:49:26.779Z,99328.00
2018-07-02T09:50:26.963Z,100000.00
2018-07-02T09:51:26.949Z,100800.00
2018-07-02T09:52:26.737Z,99584.00
2018-07-02T09:53:26.932Z,99168.00
2018-07-02T09:54:26.916Z,102720.00
2018-07-02T09:55:26.907Z,102496.00
2018-07-02T09:56:26.701Z,101792.00
2018-07-02T09:57:26.682Z,103776.00
2018-07-02T09:58:26.676Z,105536.00
2018-07-02T09:59:26.866Z,20704.00
2018-07-02T10:00:26.857Z,104416.00
2018-07-02T10:01:26.645Z,102976.00
2018-07-02T10:02:26.632Z,105568.00
2018-07-02T10:03:26.621Z,105152.00
2018-07-02T10:04:26.609Z,102432.00
2018-07-02T10:05:26.600Z,105472.00
2018-07-02T10:06:26.710Z,104000.00
2018-07-02T10:07:26.784Z,100384.00
2018-07-02T10:08:26.778Z,100736.00
2018-07-02T10:09:29.387Z,104288.00
2018-07-02T10:10:26.752Z,105632.00
2018-07-02T10:11:26.944Z,104704.00
2018-07-02T10:12:26.734Z,107392.00
2018-07-02T10:13:26.726Z,109312.00
2018-07-02T10:14:26.715Z,85504.00
2018-07-02T10:15:26.710Z,87264.00
2018-07-02T10:16:26.718Z,106624.00
2018-07-02T10:17:26.688Z,30912.00
2018-07-02T10:18:26.676Z,23808.00
2018-07-02T10:19:26.676Z,25728.00
2018-07-02T10:20:26.656Z,40192.00
2018-07-02T10:21:27.858Z,28544.00
2018-07-02T10:22:26.636Z,32608.00
2018-07-02T10:23:26.632Z,127232.00
2018-07-02T10:24:26.609Z,32992.00
2018-07-02T10:25:26.599Z,29568.00
2018-07-02T10:26:29.212Z,63424.00
2018-07-02T10:27:26.577Z,116000.00
2018-07-02T10:28:26.592Z,83296.00
2018-07-02T10:29:26.592Z,74816.00
2018-07-02T10:30:26.331Z,114656.00
2018-07-02T10:31:26.496Z,106048.00
2018-07-02T10:32:26.305Z,29344.00
2018-07-02T10:33:26.297Z,28224.00
2018-07-02T10:35:50.809Z,26624.00
2018-07-02T10:36:50.790Z,33472.00
2018-07-02T10:37:50.776Z,23904.00
2018-07-02T10:38:50.761Z,21344.00
2018-07-02T10:39:50.749Z,21344.00
2018-07-02T10:40:50.730Z,51552.00
2018-07-02T10:41:54.352Z,113952.00
2018-07-02T10:42:50.504Z,29792.00
2018-07-02T10:43:50.689Z,78176.00
2018-07-02T10:45:32.846Z,48576.00
2018-07-02T10:46:32.629Z,23136.00
2018-07-02T10:47:32.807Z,60064.00
2018-07-02T10:48:32.590Z,116832.00
2018-07-02T10:49:32.770Z,104160.00
2018-07-02T10:50:32.759Z,120320.00
2018-07-02T10:51:32.744Z,115808.00
2018-07-02T10:52:32.735Z,117632.00
2018-07-02T10:53:35.537Z,117472.00
2018-07-02T10:54:35.324Z,111840.00
2018-07-02T10:56:14.844Z,113408.00
2018-07-02T10:57:14.830Z,115264.00
2018-07-02T10:58:14.816Z,115968.00
2018-07-02T10:59:14.802Z,117696.00
2018-07-02T11:00:14.789Z,117024.00
2018-07-02T11:01:14.798Z,117760.00
2018-07-02T11:02:14.764Z,119200.00
2018-07-02T11:03:14.754Z,120576.00
2018-07-02T11:04:14.745Z,122368.00
2018-07-02T11:05:56.891Z,119584.00
2018-07-02T11:07:42.886Z,118176.00
2018-07-02T11:08:39.030Z,115584.00
2018-07-02T11:09:39.018Z,115744.00
2018-07-02T11:10:38.804Z,116320.00
2018-07-02T11:11:38.996Z,116256.00
2018-07-02T11:12:38.985Z,117472.00
2018-07-02T11:13:38.974Z,115872.00
2018-07-02T11:14:38.966Z,116672.00
2018-07-02T11:15:38.958Z,114848.00
2018-07-02T11:16:38.946Z,116224.00
2018-07-02T11:17:38.936Z,118816.00
2018-07-02T11:18:38.927Z,116512.00
2018-07-02T11:19:38.915Z,113888.00
2018-07-02T11:22:03.233Z,122592.00
2018-07-02T11:23:03.230Z,119328.00
2018-07-02T11:24:03.216Z,118880.00
2018-07-02T11:25:03.001Z,120256.00
2018-07-02T11:26:03.193Z,121600.00
2018-07-02T11:27:03.183Z,123104.00
2018-07-02T11:28:03.175Z,122048.00
2018-07-02T11:29:03.170Z,123552.00
2018-07-02T11:30:02.958Z,121696.00
2018-07-02T11:31:03.154Z,120256.00
2018-07-02T11:32:02.939Z,125312.00
2018-07-02T11:33:02.930Z,130176.00
2018-07-02T11:34:02.934Z,128864.00
2018-07-02T11:35:02.913Z,127520.00
2018-07-02T11:36:03.104Z,127264.00
2018-07-02T11:37:03.095Z,128896.00
2018-07-02T11:38:03.089Z,132320.00
2018-07-02T11:39:45.244Z,132032.00
2018-07-02T11:40:45.237Z,89728.00
2018-07-02T11:41:45.030Z,121024.00
2018-07-02T11:42:45.024Z,30624.00
2018-07-02T11:43:45.010Z,29952.00
2018-07-02T11:44:45.008Z,30656.00
2018-07-02T11:45:44.992Z,31520.00
2018-07-02T11:46:45.201Z,34464.00
2018-07-02T11:47:44.975Z,46272.00
2018-07-02T11:48:44.964Z,130144.00
2018-07-02T11:49:45.001Z,130464.00
2018-07-02T11:50:44.943Z,126432.00
2018-07-02T11:51:44.931Z,123104.00
2018-07-02T11:52:44.919Z,125536.00
2018-07-02T11:53:44.908Z,125536.00
2018-07-02T11:54:44.898Z,97440.00
2018-07-02T11:55:44.892Z,84192.00
2018-07-02T11:56:44.877Z,105696.00
2018-07-02T11:57:44.866Z,125632.00
2018-07-02T11:58:44.859Z,123968.00
2018-07-02T11:59:44.847Z,115040.00
2018-07-02T12:00:44.836Z,112256.00
2018-07-02T12:01:44.829Z,115904.00
2018-07-02T12:02:44.816Z,118400.00
2018-07-02T12:03:44.806Z,120928.00
2018-07-02T12:04:44.797Z,124192.00
2018-07-02T12:05:44.788Z,98112.00
2018-07-02T12:06:44.781Z,73568.00
2018-07-02T12:07:44.768Z,50176.00
2018-07-02T12:08:44.759Z,122112.00
2018-07-02T12:09:44.756Z,93344.00
2018-07-02T12:10:44.744Z,53408.00
2018-07-02T12:11:44.731Z,126752.00
2018-07-02T12:12:44.720Z,36256.00
2018-07-02T12:13:44.716Z,31776.00
2018-07-02T12:14:44.701Z,30016.00
2018-07-02T12:15:44.688Z,29216.00
2018-07-02T12:16:44.882Z,28576.00
2018-07-02T12:17:44.666Z,28992.00
2018-07-02T12:18:44.664Z,30944.00
2018-07-02T12:19:44.864Z,33440.00
2018-07-02T12:20:44.841Z,116864.00
2018-07-02T12:21:44.621Z,129952.00
2018-07-02T12:22:44.607Z,130720.00
2018-07-02T12:23:44.593Z,29312.00
2018-07-02T12:24:44.582Z,52384.00
2018-07-02T12:25:44.570Z,27232.00
2018-07-02T12:26:44.766Z,27520.00
2018-07-02T12:27:44.748Z,29024.00
2018-07-02T12:28:44.734Z,40768.00
2018-07-02T12:29:48.353Z,32096.00
2018-07-02T12:30:44.711Z,65568.00